createdAt,value
2023-05-19T00:01:45.579Z,99938.19
2023-05-19T00:04:16.864Z,99941.69
2023-05-19T00:06:53.199Z,99928.63
2023-05-19T00:09:23.904Z,99935.13
2023-05-19T00:11:54.738Z,99932.38
2023-05-19T00:14:25.505Z,99935.56
2023-05-19T00:16:57.574Z,99940.94
2023-05-19T00:19:28.256Z,99940.97
2023-05-19T00:21:58.707Z,99946.16
2023-05-19T00:24:29.180Z,99938.09
2023-05-19T00:26:59.606Z,99947.84
2023-05-19T00:29:30.635Z,99943.53
2023-05-19T00:32:01.180Z,99947.47
2023-05-19T00:34:31.710Z,99946.41
2023-05-19T00:37:02.181Z,99945.19
2023-05-19T00:39:32.598Z,99944.47
2023-05-19T00:42:04.243Z,99942.66
2023-05-19T00:44:34.645Z,99944.56
2023-05-19T00:47:05.181Z,99948.72
2023-05-19T00:49:35.569Z,99947.19
2023-05-19T00:52:08.263Z,99950.75
2023-05-19T00:54:38.857Z,99940.41
2023-05-19T00:57:09.426Z,99942.50
2023-05-19T00:59:39.980Z,99943.13
2023-05-19T01:02:10.532Z,99943.25
2023-05-19T01:04:43.283Z,99953.28
2023-05-19T01:07:14.138Z,99954.19
2023-05-19T01:09:44.872Z,99946.63
2023-05-19T01:12:15.534Z,99948.00
2023-05-19T01:14:49.245Z,99931.41
2023-05-19T01:17:25.906Z,99942.31
2023-05-19T01:20:03.714Z,99928.06
2023-05-19T01:22:56.505Z,99933.59
2023-05-19T01:25:49.457Z,99927.91
2023-05-19T01:28:45.408Z,99930.47
2023-05-19T01:31:18.033Z,99933.00
2023-05-19T01:33:51.055Z,99930.84
2023-05-19T01:36:24.756Z,99933.56
2023-05-19T01:38:58.382Z,99942.44
2023-05-19T01:41:31.037Z,99937.47
2023-05-19T01:44:02.336Z,99929.16
2023-05-19T01:46:32.930Z,99935.56
2023-05-19T01:49:03.933Z,99929.81
2023-05-19T01:51:34.356Z,99943.72
2023-05-19T01:54:04.874Z,99925.25
2023-05-19T01:56:54.744Z,99913.00
2023-05-19T01:59:46.405Z,99907.41
2023-05-19T02:02:39.224Z,99894.97
2023-05-19T02:05:23.026Z,99911.25
2023-05-19T02:08:07.551Z,99904.22
2023-05-19T02:10:42.553Z,99915.34
2023-05-19T02:13:17.142Z,99917.50
2023-05-19T02:15:49.164Z,99914.78
2023-05-19T02:18:21.853Z,99918.66
2023-05-19T02:20:54.301Z,99917.88
2023-05-19T02:23:25.342Z,99914.16
2023-05-19T02:25:56.239Z,99902.75
2023-05-19T02:28:29.869Z,99921.47
2023-05-19T02:31:01.486Z,99913.72
2023-05-19T02:33:31.937Z,99900.78
2023-05-19T02:36:02.769Z,99897.09
2023-05-19T02:38:33.215Z,99888.25
2023-05-19T02:41:03.582Z,99891.16
2023-05-19T02:43:34.059Z,99894.19
2023-05-19T02:46:04.607Z,99890.53
2023-05-19T02:48:35.114Z,99890.72
2023-05-19T02:51:06.641Z,99887.84
2023-05-19T02:53:37.449Z,99882.75
2023-05-19T02:56:08.199Z,99868.53
2023-05-19T02:58:38.460Z,99872.50
2023-05-19T03:01:08.839Z,99873.22
2023-05-19T03:03:39.548Z,99879.19
2023-05-19T03:06:10.276Z,99869.50
2023-05-19T03:08:42.355Z,99875.41
2023-05-19T03:11:12.835Z,99880.25
2023-05-19T03:13:43.725Z,99880.81
2023-05-19T03:16:15.574Z,99886.09
2023-05-19T03:18:45.940Z,99897.22
2023-05-19T03:21:16.494Z,99877.09
2023-05-19T03:23:47.021Z,99875.78
2023-05-19T03:26:17.478Z,99878.91
2023-05-19T03:28:47.950Z,99875.72
2023-05-19T03:31:18.510Z,99869.72
2023-05-19T03:34:09.607Z,99863.47
2023-05-19T03:36:43.061Z,99864.78
2023-05-19T03:39:18.018Z,99859.38
2023-05-19T03:41:51.517Z,99868.16
2023-05-19T03:44:22.016Z,99855.94
2023-05-19T03:46:52.574Z,99853.25
2023-05-19T03:49:52.451Z,99855.91
2023-05-19T03:52:49.024Z,99847.50
2023-05-19T03:55:31.612Z,99844.56
2023-05-19T03:58:02.197Z,99844.88
2023-05-19T04:00:33.653Z,99843.56
2023-05-19T04:03:04.851Z,99844.38
2023-05-19T04:05:37.060Z,99852.41
2023-05-19T04:08:07.712Z,99847.25
2023-05-19T04:10:38.020Z,99852.41
2023-05-19T04:13:08.462Z,99851.22
2023-05-19T04:15:39.104Z,99858.38
2023-05-19T04:18:09.648Z,99862.25
2023-05-19T04:20:40.927Z,99852.22
2023-05-19T04:23:12.402Z,99852.59
2023-05-19T04:25:43.528Z,99847.03
2023-05-19T04:28:14.723Z,99851.78
2023-05-19T04:30:48.141Z,99858.84
2023-05-19T04:33:19.366Z,99860.22
2023-05-19T04:35:52.076Z,99861.09
2023-05-19T04:38:23.624Z,99853.47
2023-05-19T04:40:54.710Z,99844.56
2023-05-19T04:43:25.143Z,99850.84
2023-05-19T04:45:56.340Z,99842.28
2023-05-19T04:48:27.606Z,99844.13
2023-05-19T04:50:58.212Z,99849.34
2023-05-19T04:53:28.839Z,99847.50
2023-05-19T04:56:00.510Z,99855.66
2023-05-19T04:58:31.735Z,99856.47
2023-05-19T05:01:02.204Z,99842.47
2023-05-19T05:03:34.997Z,99841.69
2023-05-19T05:06:06.197Z,99845.88
2023-05-19T05:08:36.562Z,99848.31
2023-05-19T05:11:07.278Z,99842.56
2023-05-19T05:13:38.217Z,99839.66
2023-05-19T05:16:10.023Z,99831.66
2023-05-19T05:18:44.387Z,99831.16
2023-05-19T05:21:16.172Z,99837.41
2023-05-19T05:23:47.267Z,99831.44
2023-05-19T05:26:22.984Z,99827.09
2023-05-19T05:28:58.679Z,99827.19
2023-05-19T05:31:29.413Z,99832.56
2023-05-19T05:34:00.535Z,99830.72
2023-05-19T05:36:36.471Z,99828.53
2023-05-19T05:39:07.251Z,99827.66
2023-05-19T05:41:39.003Z,99824.16
2023-05-19T05:44:13.662Z,99823.19
2023-05-19T05:46:47.172Z,99823.06
2023-05-19T05:49:18.253Z,99821.59
2023-05-19T05:52:04.307Z,99824.41
2023-05-19T05:54:43.866Z,99817.91
2023-05-19T05:57:15.300Z,99818.25
2023-05-19T05:59:48.689Z,99818.00
2023-05-19T06:02:21.614Z,99821.94
2023-05-19T06:04:52.423Z,99821.63
2023-05-19T06:07:23.983Z,99809.56
2023-05-19T06:09:54.545Z,99814.59
2023-05-19T06:12:25.140Z,99810.28
2023-05-19T06:14:55.746Z,99796.88
2023-05-19T06:17:47.828Z,99809.44
2023-05-19T06:20:18.393Z,99797.25
2023-05-19T06:22:48.921Z,99788.38
2023-05-19T06:25:22.319Z,99787.59
2023-05-19T06:27:53.149Z,99781.13
2023-05-19T06:30:25.167Z,99782.41
2023-05-19T06:33:07.588Z,99777.69
2023-05-19T06:35:38.135Z,99780.97
2023-05-19T06:38:09.356Z,99770.72
2023-05-19T06:40:40.039Z,99790.97
2023-05-19T06:43:10.598Z,99784.56
2023-05-19T06:46:05.989Z,99784.03
2023-05-19T06:48:37.002Z,99779.50
2023-05-19T06:51:08.023Z,99767.63
2023-05-19T06:53:38.714Z,99765.38
2023-05-19T06:56:11.736Z,99763.59
2023-05-19T06:58:43.144Z,99765.69
2023-05-19T07:01:14.463Z,99760.94
2023-05-19T07:03:50.002Z,99759.56
2023-05-19T07:06:20.781Z,99757.25
2023-05-19T07:08:51.624Z,99759.06
2023-05-19T07:11:23.285Z,99754.31
2023-05-19T07:13:53.967Z,99748.50
2023-05-19T07:16:29.848Z,99744.72
2023-05-19T07:19:00.471Z,99747.41
2023-05-19T07:21:30.850Z,99752.06
2023-05-19T07:24:01.306Z,99751.50
2023-05-19T07:26:32.144Z,99741.81
2023-05-19T07:29:02.671Z,99736.47
2023-05-19T07:31:33.110Z,99740.63
2023-05-19T07:34:03.671Z,99738.50
2023-05-19T07:36:34.195Z,99728.97
2023-05-19T07:39:05.210Z,99731.38
2023-05-19T07:41:36.457Z,99737.66
2023-05-19T07:44:09.148Z,99737.78
2023-05-19T07:46:40.213Z,99729.53
2023-05-19T07:49:10.726Z,99724.72
2023-05-19T07:51:43.325Z,99713.47
2023-05-19T07:54:14.065Z,99724.19
2023-05-19T07:56:44.558Z,99720.88
2023-05-19T07:59:15.131Z,99723.94
2023-05-19T08:01:45.772Z,99721.13
2023-05-19T08:04:16.414Z,99721.13
2023-05-19T08:06:47.007Z,99719.09
2023-05-19T08:09:17.471Z,99730.09
2023-05-19T08:11:48.632Z,99737.00
2023-05-19T08:14:19.203Z,99729.94
2023-05-19T08:16:49.734Z,99727.28
2023-05-19T08:19:20.533Z,99722.41
2023-05-19T08:21:51.241Z,99735.84
2023-05-19T08:24:21.716Z,99726.25
2023-05-19T08:26:52.253Z,99729.81
2023-05-19T08:29:22.771Z,99744.44
2023-05-19T08:31:54.548Z,99747.69
2023-05-19T08:34:25.140Z,99750.81
2023-05-19T08:36:59.238Z,99759.50
2023-05-19T08:39:29.818Z,99756.72
2023-05-19T08:42:00.376Z,99756.75
2023-05-19T08:44:32.359Z,99751.22
2023-05-19T08:47:14.167Z,99750.34
2023-05-19T08:49:49.465Z,99747.81
2023-05-19T08:52:33.414Z,99756.09
2023-05-19T08:55:11.141Z,99752.97
2023-05-19T08:57:42.850Z,99752.28
2023-05-19T09:00:14.722Z,99748.38
2023-05-19T09:02:55.128Z,99753.25
2023-05-19T09:05:32.478Z,99748.03
2023-05-19T09:08:04.356Z,99742.66
2023-05-19T09:10:34.820Z,99752.22
2023-05-19T09:13:06.969Z,99744.59
2023-05-19T09:15:39.297Z,99757.56
2023-05-19T09:18:13.061Z,99755.06
2023-05-19T09:20:45.847Z,99753.38
2023-05-19T09:23:17.599Z,99756.69
2023-05-19T09:25:55.530Z,99767.88
2023-05-19T09:28:32.051Z,99781.19
2023-05-19T09:31:09.336Z,99783.75
2023-05-19T09:33:46.078Z,99791.50
2023-05-19T09:36:16.838Z,99794.78
2023-05-19T09:38:48.270Z,99787.44
2023-05-19T09:41:36.588Z,99791.53
2023-05-19T09:44:08.812Z,99790.59
2023-05-19T09:46:39.295Z,99793.19
2023-05-19T09:49:13.227Z,99792.88
2023-05-19T09:51:47.343Z,99792.59
2023-05-19T09:54:21.048Z,99806.94
2023-05-19T09:57:01.666Z,99799.09
2023-05-19T09:59:34.027Z,99794.69
2023-05-19T10:02:05.448Z,99797.00
2023-05-19T10:04:36.651Z,99805.25
2023-05-19T10:07:08.165Z,99793.69
2023-05-19T10:09:39.980Z,99800.59
2023-05-19T10:12:13.029Z,99804.97
2023-05-19T10:14:44.336Z,99798.88
2023-05-19T10:17:15.544Z,99806.66
2023-05-19T10:19:47.330Z,99813.16
2023-05-19T10:22:17.822Z,99809.41
2023-05-19T10:24:48.255Z,99813.47
2023-05-19T10:27:20.503Z,99814.78
2023-05-19T10:29:51.957Z,99831.38
2023-05-19T10:32:30.644Z,99830.00
2023-05-19T10:35:14.229Z,99824.22
2023-05-19T10:37:47.833Z,99833.91
2023-05-19T10:40:35.932Z,99838.53
2023-05-19T10:43:53.349Z,99841.28
2023-05-19T10:46:33.435Z,99840.78
2023-05-19T10:49:03.862Z,99849.75
2023-05-19T10:51:35.620Z,99860.81
2023-05-19T10:54:14.579Z,99871.94
2023-05-19T10:56:49.213Z,99875.66
2023-05-19T10:59:38.656Z,99879.56
2023-05-19T11:02:11.002Z,99881.41
2023-05-19T11:05:00.037Z,99886.25
2023-05-19T11:07:31.378Z,99886.94
2023-05-19T11:10:01.960Z,99880.72
2023-05-19T11:12:46.209Z,99883.69
2023-05-19T11:15:17.879Z,99886.53
2023-05-19T11:17:51.023Z,99888.78
2023-05-19T11:20:36.187Z,99889.63
2023-05-19T11:23:08.539Z,99879.84
2023-05-19T11:25:49.669Z,99891.31
2023-05-19T11:28:22.565Z,99901.28
2023-05-19T11:30:53.541Z,99902.00
2023-05-19T11:33:28.612Z,99912.72
2023-05-19T11:35:59.962Z,99915.56
2023-05-19T11:38:34.186Z,99920.03
2023-05-19T11:41:06.553Z,99920.53
2023-05-19T11:43:37.258Z,99939.59
2023-05-19T11:46:07.850Z,99942.25
2023-05-19T11:48:38.628Z,99947.22
2023-05-19T11:51:09.587Z,99949.91
2023-05-19T11:53:40.200Z,99950.78
2023-05-19T11:56:10.665Z,99956.94
2023-05-19T11:58:41.068Z,99952.38
2023-05-19T12:01:11.848Z,99958.72
2023-05-19T12:03:42.441Z,99964.44
2023-05-19T12:06:13.412Z,99961.47
2023-05-19T12:08:43.911Z,99960.94
2023-05-19T12:11:14.971Z,99961.81
2023-05-19T12:13:46.180Z,99968.59
2023-05-19T12:16:16.663Z,99965.59
2023-05-19T12:18:47.129Z,99963.03
2023-05-19T12:21:18.906Z,99970.84
2023-05-19T12:23:49.517Z,99968.50
2023-05-19T12:26:21.623Z,99965.41
2023-05-19T12:28:54.405Z,99969.97
2023-05-19T12:31:43.515Z,99979.38
2023-05-19T12:34:15.164Z,99972.41
2023-05-19T12:36:45.884Z,99972.50
2023-05-19T12:39:17.729Z,99980.28
2023-05-19T12:41:49.019Z,99982.25
2023-05-19T12:44:19.822Z,99982.84
2023-05-19T12:46:54.555Z,99975.34
2023-05-19T12:49:25.072Z,99983.91
2023-05-19T12:51:56.473Z,99983.97
2023-05-19T12:54:27.781Z,99981.97
2023-05-19T12:57:00.904Z,99973.75
2023-05-19T12:59:38.927Z,99985.72
2023-05-19T13:02:09.683Z,99987.72
2023-05-19T13:04:40.172Z,99988.78
2023-05-19T13:07:11.276Z,99982.38
2023-05-19T13:09:41.720Z,99991.22
2023-05-19T13:12:12.217Z,99988.81
2023-05-19T13:14:45.139Z,99993.81
2023-05-19T13:17:15.575Z,99997.19
2023-05-19T13:19:46.193Z,100000.16
2023-05-19T13:22:16.678Z,99995.16
2023-05-19T13:24:47.033Z,99992.34
2023-05-19T13:27:17.464Z,99990.03
2023-05-19T13:29:47.861Z,99984.22
2023-05-19T13:32:18.950Z,99983.66
2023-05-19T13:34:49.433Z,99982.81
2023-05-19T13:37:19.935Z,99973.75
2023-05-19T13:39:50.424Z,99971.69
2023-05-19T13:42:20.988Z,99980.13
2023-05-19T13:45:09.971Z,99980.75
2023-05-19T13:47:41.196Z,99972.31
2023-05-19T13:50:12.113Z,99967.16
2023-05-19T13:52:43.298Z,99977.81
2023-05-19T13:55:13.875Z,99973.16
2023-05-19T13:57:44.394Z,99968.75
2023-05-19T14:00:15.382Z,99975.00
2023-05-19T14:02:45.949Z,99970.91
2023-05-19T14:05:16.444Z,99971.25
2023-05-19T14:07:47.824Z,99984.06
2023-05-19T14:10:18.417Z,99971.38
2023-05-19T14:13:12.459Z,99962.25
2023-05-19T14:15:39.437Z,99962.25
2023-05-19T14:18:28.175Z,99954.41
2023-05-19T14:20:58.685Z,99953.59
2023-05-19T14:23:30.692Z,99943.31
2023-05-19T14:26:01.278Z,99944.97
2023-05-19T14:28:32.152Z,99944.72
2023-05-19T14:31:02.653Z,99942.00
2023-05-19T14:33:35.025Z,99943.28
2023-05-19T14:36:06.925Z,99940.38
2023-05-19T14:38:37.896Z,99938.91
2023-05-19T14:41:09.435Z,99940.13
2023-05-19T14:43:39.940Z,99937.28
2023-05-19T14:46:10.526Z,99931.00
2023-05-19T14:48:40.960Z,99943.31
2023-05-19T14:51:11.604Z,99947.81
2023-05-19T14:53:42.193Z,99944.22
2023-05-19T14:56:12.633Z,99938.78
2023-05-19T14:58:43.464Z,99935.44
2023-05-19T15:01:13.917Z,99938.56
2023-05-19T15:03:44.351Z,99940.41
2023-05-19T15:06:15.008Z,99948.63
2023-05-19T15:08:45.494Z,99955.03
2023-05-19T15:11:16.022Z,99958.13
2023-05-19T15:13:46.445Z,99960.97
2023-05-19T15:16:18.293Z,99956.03
2023-05-19T15:18:49.055Z,99957.13
2023-05-19T15:21:20.036Z,99953.34
2023-05-19T15:23:50.502Z,99964.94
2023-05-19T15:26:20.898Z,99973.19
2023-05-19T15:28:51.494Z,99974.19
2023-05-19T15:31:22.004Z,99971.34
2023-05-19T15:33:52.659Z,99975.84
2023-05-19T15:36:23.373Z,99963.47
2023-05-19T15:38:53.947Z,99970.28
2023-05-19T15:41:24.447Z,99970.50
2023-05-19T15:43:55.214Z,99968.63
2023-05-19T15:46:25.926Z,99962.16
2023-05-19T15:48:56.444Z,99963.06
2023-05-19T15:51:27.210Z,99955.44
2023-05-19T15:53:57.696Z,99953.81
2023-05-19T15:56:28.208Z,99950.97
2023-05-19T15:58:58.681Z,99947.38
2023-05-19T16:01:29.313Z,99941.84
2023-05-19T16:03:59.976Z,99942.81
2023-05-19T16:06:30.496Z,99949.59
2023-05-19T16:09:01.152Z,99949.22
2023-05-19T16:11:31.937Z,99955.56
2023-05-19T16:14:02.307Z,99957.69
2023-05-19T16:16:32.837Z,99964.47
2023-05-19T16:19:03.348Z,99968.47
2023-05-19T16:21:34.100Z,99959.56
2023-05-19T16:24:04.549Z,99960.13
2023-05-19T16:26:35.923Z,99949.44
2023-05-19T16:29:06.358Z,99952.72
2023-05-19T16:31:36.994Z,99946.66
2023-05-19T16:34:07.419Z,99941.16
2023-05-19T16:36:38.026Z,99942.66
2023-05-19T16:39:08.536Z,99954.72
2023-05-19T16:41:38.984Z,99957.09
2023-05-19T16:44:09.809Z,99962.44
2023-05-19T16:46:40.129Z,99960.38
2023-05-19T16:49:10.599Z,99962.38
2023-05-19T16:51:41.163Z,99954.91
2023-05-19T16:54:11.840Z,99948.75
2023-05-19T16:56:42.399Z,99952.03
2023-05-19T16:59:13.205Z,99953.72
2023-05-19T17:01:43.638Z,99953.66
2023-05-19T17:04:14.728Z,99967.97
2023-05-19T17:06:45.227Z,99971.28
2023-05-19T17:09:15.702Z,99975.75
2023-05-19T17:11:46.221Z,99976.06
2023-05-19T17:14:16.758Z,99971.38
2023-05-19T17:16:47.382Z,99963.69
2023-05-19T17:19:18.398Z,99956.09
2023-05-19T17:21:49.119Z,99948.09
2023-05-19T17:24:19.840Z,99954.22
2023-05-19T17:26:50.276Z,99956.66
2023-05-19T17:29:20.718Z,99952.25
2023-05-19T17:31:51.445Z,99946.00
2023-05-19T17:34:22.566Z,99944.97
2023-05-19T17:36:53.026Z,99953.41
2023-05-19T17:39:23.590Z,99950.50
2023-05-19T17:41:54.001Z,99946.59
2023-05-19T17:44:24.373Z,99953.31
2023-05-19T17:46:54.885Z,99954.22
2023-05-19T17:49:27.129Z,99939.25
2023-05-19T17:51:58.100Z,99944.97
2023-05-19T17:54:28.950Z,99958.19
2023-05-19T17:57:03.558Z,99966.03
2023-05-19T17:59:34.280Z,99972.78
2023-05-19T18:02:05.295Z,99970.28
2023-05-19T18:04:35.980Z,99965.94
2023-05-19T18:07:08.951Z,99970.06
2023-05-19T18:09:41.554Z,99970.53
2023-05-19T18:12:12.538Z,99964.34
2023-05-19T18:15:01.259Z,99960.44
2023-05-19T18:17:31.974Z,99958.06
2023-05-19T18:20:02.478Z,99960.78
2023-05-19T18:22:33.372Z,99957.06
2023-05-19T18:25:03.806Z,99947.78
2023-05-19T18:27:35.014Z,99956.50
2023-05-19T18:30:05.505Z,99954.03
2023-05-19T18:32:36.462Z,99956.06
2023-05-19T18:35:07.295Z,99956.75
2023-05-19T18:37:38.322Z,99956.44
2023-05-19T18:40:09.854Z,99951.53
2023-05-19T18:42:40.591Z,99956.75
2023-05-19T18:45:11.440Z,99948.13
2023-05-19T18:47:42.261Z,99956.97
2023-05-19T18:50:13.079Z,99955.94
2023-05-19T18:52:43.524Z,99958.78
2023-05-19T18:55:14.178Z,99958.56
2023-05-19T18:57:44.436Z,99965.38
2023-05-19T19:00:16.076Z,99958.38
2023-05-19T19:02:46.557Z,99954.66
2023-05-19T19:05:17.062Z,99949.09
2023-05-19T19:07:47.694Z,99960.03
2023-05-19T19:10:18.171Z,99963.53
2023-05-19T19:12:48.581Z,99966.47
2023-05-19T19:15:18.999Z,99964.97
2023-05-19T19:17:49.464Z,99963.34
2023-05-19T19:20:20.185Z,99960.03
2023-05-19T19:22:50.713Z,99962.72
2023-05-19T19:25:23.239Z,99959.44
2023-05-19T19:27:54.294Z,99953.69
2023-05-19T19:30:24.769Z,99958.59
2023-05-19T19:32:57.000Z,99966.63
2023-05-19T19:35:48.507Z,99969.69
2023-05-19T19:38:19.153Z,99963.72
2023-05-19T19:40:49.764Z,99974.22
2023-05-19T19:43:20.400Z,99980.63
2023-05-19T19:45:51.192Z,99976.69
2023-05-19T19:48:21.801Z,99975.69
2023-05-19T19:50:56.570Z,99979.59
2023-05-19T19:53:27.109Z,99980.81
2023-05-19T19:56:04.057Z,99985.78
2023-05-19T19:58:34.627Z,99988.69
2023-05-19T20:01:07.304Z,99986.81
2023-05-19T20:03:38.507Z,99984.94
2023-05-19T20:06:09.260Z,99985.38
2023-05-19T20:08:39.861Z,99981.44
2023-05-19T20:11:11.221Z,99973.00
2023-05-19T20:13:41.773Z,99969.91
2023-05-19T20:16:12.212Z,99969.09
2023-05-19T20:18:42.901Z,99962.94
2023-05-19T20:21:13.391Z,99963.13
2023-05-19T20:23:44.464Z,99970.38
2023-05-19T20:26:15.196Z,99979.31
2023-05-19T20:28:45.949Z,99982.25
2023-05-19T20:31:16.449Z,99991.50
2023-05-19T20:33:46.926Z,99990.50
2023-05-19T20:36:17.578Z,99991.53
2023-05-19T20:38:49.384Z,99991.34
2023-05-19T20:41:19.815Z,100012.09
2023-05-19T20:43:50.213Z,99995.91
2023-05-19T20:46:20.680Z,99994.22
2023-05-19T20:48:51.089Z,100001.56
2023-05-19T20:51:23.226Z,100005.78
2023-05-19T20:53:53.319Z,100010.47
2023-05-19T20:56:26.615Z,99999.56
2023-05-19T20:58:57.072Z,100015.63
2023-05-19T21:01:27.743Z,100016.56
2023-05-19T21:03:58.200Z,100020.66
2023-05-19T21:06:28.636Z,100032.22
2023-05-19T21:09:17.206Z,100047.94
2023-05-19T21:11:49.406Z,100038.34
2023-05-19T21:14:19.739Z,100047.72
2023-05-19T21:16:57.277Z,100060.06
2023-05-19T21:19:27.915Z,100064.06
2023-05-19T21:21:58.729Z,100066.94
2023-05-19T21:24:29.835Z,100063.66
2023-05-19T21:27:00.665Z,100067.91
2023-05-19T21:29:31.284Z,100070.16
2023-05-19T21:32:01.878Z,100078.03
2023-05-19T21:34:32.254Z,100073.66
2023-05-19T21:37:02.717Z,100086.91
2023-05-19T21:39:33.007Z,100084.53
2023-05-19T21:42:03.479Z,100079.75
2023-05-19T21:44:34.010Z,100079.78
2023-05-19T21:47:04.584Z,100084.16
2023-05-19T21:49:35.220Z,100086.75
2023-05-19T21:52:06.060Z,100091.00
2023-05-19T21:54:37.589Z,100080.38
2023-05-19T21:57:08.222Z,100082.66
2023-05-19T21:59:38.619Z,100085.78
2023-05-19T22:02:09.129Z,100095.00
2023-05-19T22:04:40.121Z,100095.53
2023-05-19T22:07:10.565Z,100092.41
2023-05-19T22:09:59.029Z,100093.44
2023-05-19T22:12:29.460Z,100093.94
2023-05-19T22:15:00.278Z,100104.06
2023-05-19T22:17:31.476Z,100109.28
2023-05-19T22:20:01.984Z,100109.38
2023-05-19T22:22:32.586Z,100095.22
2023-05-19T22:25:03.963Z,100090.34
2023-05-19T22:27:34.536Z,100096.06
2023-05-19T22:30:04.957Z,100091.28
2023-05-19T22:32:36.670Z,100099.72
2023-05-19T22:35:08.101Z,100097.38
2023-05-19T22:37:38.527Z,100099.78
2023-05-19T22:40:09.468Z,100098.22
2023-05-19T22:42:39.784Z,100095.50
2023-05-19T22:45:10.984Z,100095.53
2023-05-19T22:47:41.470Z,100101.72
2023-05-19T22:50:12.500Z,100098.31
2023-05-19T22:52:42.904Z,100100.69
2023-05-19T22:55:13.730Z,100095.63
2023-05-19T22:57:44.386Z,100091.84
2023-05-19T23:00:20.164Z,100101.25
2023-05-19T23:02:50.869Z,100105.44
2023-05-19T23:05:21.132Z,100104.69
2023-05-19T23:07:51.489Z,100094.25
2023-05-19T23:10:22.036Z,100086.78
2023-05-19T23:12:53.067Z,100081.81
2023-05-19T23:15:23.384Z,100075.78
2023-05-19T23:17:53.987Z,100072.28
2023-05-19T23:20:24.336Z,100061.22
2023-05-19T23:22:54.794Z,100060.03
2023-05-19T23:25:25.173Z,100053.41
2023-05-19T23:27:56.005Z,100052.78
2023-05-19T23:30:26.508Z,100050.00
2023-05-19T23:32:57.066Z,100041.50
2023-05-19T23:35:27.521Z,100046.00
2023-05-19T23:37:57.987Z,100038.88
2023-05-19T23:40:28.473Z,100038.84
2023-05-19T23:42:58.878Z,100038.56
2023-05-19T23:45:29.333Z,100034.38
2023-05-19T23:48:00.736Z,100027.41
2023-05-19T23:50:31.226Z,100022.00
2023-05-19T23:53:02.270Z,100018.69
2023-05-19T23:55:32.839Z,100019.31
2023-05-19T23:58:03.574Z,100017.06
